createdAt,value
2022-09-16T00:04:09.455Z,95585.56
2022-09-16T00:09:11.584Z,95579.88
2022-09-16T00:14:13.684Z,95546.09
2022-09-16T00:19:17.286Z,95560.13
2022-09-16T00:24:19.395Z,95564.84
2022-09-16T00:29:21.430Z,95564.28
2022-09-16T00:34:23.684Z,95564.28
2022-09-16T00:39:25.938Z,95550.81
2022-09-16T00:44:58.826Z,95584.59
2022-09-16T00:50:14.532Z,95578.75
2022-09-16T00:55:22.120Z,95558.97
2022-09-16T01:00:24.396Z,95560.38
2022-09-16T01:05:27.437Z,95577.31
2022-09-16T01:10:29.569Z,95589.44
2022-09-16T01:15:49.636Z,95586.94
2022-09-16T01:21:01.542Z,95607.66
2022-09-16T01:26:33.407Z,95608.19
2022-09-16T01:32:07.163Z,95611.81
2022-09-16T01:37:26.674Z,95595.88
2022-09-16T01:42:43.876Z,95605.34
2022-09-16T01:48:32.030Z,95615.91
2022-09-16T01:53:40.295Z,95612.88
2022-09-16T01:59:10.054Z,95614.25
2022-09-16T02:04:22.422Z,95611.34
2022-09-16T02:09:37.861Z,95606.75
2022-09-16T02:14:43.328Z,95594.25
2022-09-16T02:19:54.515Z,95595.09
2022-09-16T02:24:59.048Z,95629.09
2022-09-16T02:30:17.285Z,95625.75
2022-09-16T02:35:22.215Z,95602.13
2022-09-16T02:40:41.017Z,95617.41
2022-09-16T02:46:04.827Z,95633.59
2022-09-16T02:51:23.432Z,95617.41
2022-09-16T02:56:32.187Z,95611.97
2022-09-16T03:01:41.611Z,95630.16
2022-09-16T03:06:44.213Z,95621.97
2022-09-16T03:11:58.312Z,95623.56
2022-09-16T03:17:08.647Z,95604.09
2022-09-16T03:22:19.480Z,95630.09
2022-09-16T03:27:44.868Z,95613.44
2022-09-16T03:33:00.758Z,95611.09
2022-09-16T03:43:54.972Z,95609.00
2022-09-16T03:48:57.672Z,95605.09
2022-09-16T03:53:59.765Z,95595.47
2022-09-16T03:59:01.923Z,95600.63
2022-09-16T04:04:04.384Z,95581.19
2022-09-16T04:09:08.311Z,95596.06
2022-09-16T04:14:11.386Z,95624.88
2022-09-16T04:19:14.702Z,95636.91
2022-09-16T04:24:16.785Z,95632.00
2022-09-16T04:29:18.909Z,95642.16
2022-09-16T04:34:21.203Z,95629.94
2022-09-16T04:39:23.289Z,95647.50
2022-09-16T04:44:26.847Z,95643.94
2022-09-16T04:49:28.865Z,95644.84
2022-09-16T04:54:31.052Z,95657.25
2022-09-16T04:59:33.111Z,95643.78
2022-09-16T05:04:35.516Z,95645.22
2022-09-16T05:09:37.783Z,95624.44
2022-09-16T05:14:39.981Z,95629.22
2022-09-16T05:19:42.161Z,95653.50
2022-09-16T05:24:44.986Z,95621.81
2022-09-16T05:29:47.657Z,95617.81
2022-09-16T05:50:06.683Z,95629.84
2022-09-16T05:55:09.352Z,95642.69
2022-09-16T06:00:12.761Z,95614.44
2022-09-16T06:05:15.025Z,95624.59
2022-09-16T06:10:17.259Z,95615.69
2022-09-16T06:15:19.323Z,95592.59
2022-09-16T06:20:21.485Z,95574.41
2022-09-16T06:25:23.850Z,95559.22
2022-09-16T06:30:30.435Z,95575.50
2022-09-16T06:35:35.110Z,95566.81
2022-09-16T06:40:37.339Z,95591.38
2022-09-16T06:45:39.549Z,95584.94
2022-09-16T06:50:41.680Z,95573.91
2022-09-16T06:55:44.096Z,95564.44
2022-09-16T07:00:46.296Z,95570.66
2022-09-16T07:05:58.607Z,95584.91
2022-09-16T07:11:03.664Z,95598.50
2022-09-16T07:16:13.427Z,95580.00
2022-09-16T07:21:17.258Z,95596.16
2022-09-16T07:26:26.536Z,95597.47
2022-09-16T07:31:31.597Z,95606.22
2022-09-16T07:36:42.165Z,95601.94
2022-09-16T07:41:46.612Z,95586.59
2022-09-16T07:46:51.507Z,95608.81
2022-09-16T07:51:53.994Z,95606.88
2022-09-16T07:56:57.492Z,95596.41
2022-09-16T08:01:59.617Z,95606.81
2022-09-16T08:07:01.753Z,95595.22
2022-09-16T08:12:06.069Z,95594.56
2022-09-16T08:17:08.611Z,95584.06
2022-09-16T08:22:10.672Z,95577.47
2022-09-16T08:27:12.703Z,95560.47
2022-09-16T08:32:14.932Z,95555.44
2022-09-16T08:37:17.229Z,95565.13
2022-09-16T08:42:44.029Z,95571.63
2022-09-16T08:47:49.611Z,95578.53
2022-09-16T08:52:55.331Z,95564.53
2022-09-16T08:58:16.427Z,95554.13
2022-09-16T09:03:39.965Z,95513.50
2022-09-16T09:09:18.309Z,95539.94
2022-09-16T09:14:30.153Z,95528.66
2022-09-16T09:19:50.027Z,95475.97
2022-09-16T09:25:06.995Z,95502.25
2022-09-16T09:30:21.585Z,95516.41
2022-09-16T09:36:05.433Z,95509.25
2022-09-16T09:41:21.136Z,95473.22
2022-09-16T09:46:41.724Z,95468.50
2022-09-16T09:52:05.114Z,95468.56
2022-09-16T09:57:37.927Z,95474.31
2022-09-16T10:02:47.460Z,95453.72
2022-09-16T10:07:55.357Z,95456.94
2022-09-16T10:13:10.119Z,95453.13
2022-09-16T10:18:21.166Z,95473.91
2022-09-16T10:23:29.675Z,95459.19
2022-09-16T10:28:32.524Z,95461.34
2022-09-16T10:33:41.727Z,95459.84
2022-09-16T10:39:02.259Z,95461.44
2022-09-16T10:44:17.518Z,95472.75
2022-09-16T10:49:25.189Z,95484.84
2022-09-16T10:54:28.394Z,95451.09
2022-09-16T10:59:30.507Z,95464.75
2022-09-16T11:04:36.231Z,95466.06
2022-09-16T11:09:50.761Z,95473.97
2022-09-16T11:15:06.993Z,95459.47
2022-09-16T11:20:34.204Z,95470.13
2022-09-16T11:25:48.545Z,95467.53
2022-09-16T11:31:02.629Z,95448.44
2022-09-16T11:37:00.595Z,95459.28
2022-09-16T11:42:30.241Z,95451.81
2022-09-16T11:47:44.967Z,95429.06
2022-09-16T11:53:01.529Z,95451.97
2022-09-16T11:58:42.254Z,95436.63
2022-09-16T12:03:55.878Z,95448.72
2022-09-16T12:09:06.471Z,95420.63
2022-09-16T12:14:20.963Z,95403.25
2022-09-16T12:19:30.322Z,95412.56
2022-09-16T12:24:43.000Z,95421.97
2022-09-16T12:30:01.511Z,95403.22
2022-09-16T12:35:15.472Z,95418.28
2022-09-16T12:40:25.920Z,95436.50
2022-09-16T12:45:48.100Z,95457.59
2022-09-16T12:51:27.093Z,95474.47
2022-09-16T12:56:50.716Z,95490.44
2022-09-16T13:02:02.026Z,95487.41
2022-09-16T13:07:05.272Z,95482.63
2022-09-16T13:12:39.149Z,95479.59
2022-09-16T13:17:43.991Z,95496.78
2022-09-16T13:23:09.011Z,95524.00
2022-09-16T13:28:32.814Z,95540.34
2022-09-16T13:33:35.100Z,95510.91
2022-09-16T13:38:41.349Z,95543.72
2022-09-16T13:43:43.528Z,95554.09
2022-09-16T13:49:16.618Z,95572.16
2022-09-16T13:54:53.475Z,95546.66
2022-09-16T14:00:06.736Z,95569.38
2022-09-16T14:05:54.389Z,95529.34
2022-09-16T14:11:12.407Z,95516.13
2022-09-16T14:16:23.144Z,95514.91
2022-09-16T14:21:25.517Z,95497.13
2022-09-16T14:26:27.717Z,95473.78
2022-09-16T14:31:32.112Z,95500.44
2022-09-16T14:36:40.698Z,95510.91
2022-09-16T14:41:53.444Z,95472.38
2022-09-16T14:47:09.069Z,95509.47
2022-09-16T14:52:24.714Z,95484.22
2022-09-16T14:57:29.861Z,95507.28
2022-09-16T15:02:41.380Z,95499.16
2022-09-16T15:08:02.601Z,95522.97
2022-09-16T15:13:13.043Z,95536.03
2022-09-16T15:18:24.751Z,95558.28
2022-09-16T15:23:28.521Z,95551.91
2022-09-16T15:28:31.216Z,95514.41
2022-09-16T15:33:42.971Z,95513.00
2022-09-16T15:38:45.647Z,95530.41
2022-09-16T15:43:48.547Z,95489.75
2022-09-16T15:49:02.403Z,95503.50
2022-09-16T15:54:27.830Z,95486.91
2022-09-16T15:59:41.933Z,95497.19
2022-09-16T16:04:44.668Z,95490.38
2022-09-16T16:09:50.193Z,95464.38
2022-09-16T16:15:00.878Z,95473.41
2022-09-16T16:20:03.352Z,95487.09
2022-09-16T16:25:08.799Z,95456.84
2022-09-16T16:30:15.219Z,95470.78
2022-09-16T16:35:17.423Z,95438.41
2022-09-16T16:40:22.432Z,95416.28
2022-09-16T16:45:24.676Z,95420.72
2022-09-16T16:50:26.832Z,95405.06
2022-09-16T16:55:29.134Z,95412.25
2022-09-16T17:00:31.807Z,95398.69
2022-09-16T17:05:33.939Z,95398.47
2022-09-16T17:10:36.133Z,95418.66
2022-09-16T17:15:38.460Z,95431.09
2022-09-16T17:20:40.944Z,95415.38
2022-09-16T17:25:43.071Z,95415.22
2022-09-16T17:30:48.632Z,95404.75
2022-09-16T17:36:02.352Z,95416.34
2022-09-16T17:41:15.343Z,95425.97
2022-09-16T17:46:24.351Z,95402.72
2022-09-16T17:51:27.086Z,95396.22
2022-09-16T17:56:29.802Z,95405.53
2022-09-16T18:01:32.366Z,95409.22
2022-09-16T18:06:44.465Z,95398.41
2022-09-16T18:11:47.854Z,95425.16
2022-09-16T18:16:50.205Z,95400.63
2022-09-16T18:21:52.843Z,95423.69
2022-09-16T18:26:55.130Z,95419.38
2022-09-16T18:31:57.662Z,95427.50
2022-09-16T18:36:59.925Z,95444.94
2022-09-16T18:42:02.144Z,95426.91
2022-09-16T18:47:04.523Z,95451.16
2022-09-16T18:52:07.095Z,95470.09
2022-09-16T18:57:09.480Z,95467.34
2022-09-16T19:02:13.618Z,95480.63
2022-09-16T19:07:17.495Z,95474.75
2022-09-16T19:12:19.847Z,95478.50
2022-09-16T19:17:23.156Z,95480.03
2022-09-16T19:22:25.490Z,95490.88
2022-09-16T19:27:27.700Z,95458.22
2022-09-16T19:32:29.933Z,95465.09
2022-09-16T19:37:32.215Z,95474.53
2022-09-16T19:42:34.313Z,95466.56
2022-09-16T19:47:38.713Z,95473.63
2022-09-16T19:52:41.114Z,95483.19
2022-09-16T19:57:46.400Z,95480.28
2022-09-16T20:02:48.880Z,95487.72
2022-09-16T20:07:51.108Z,95459.31
2022-09-16T20:12:59.348Z,95463.25
2022-09-16T20:18:04.205Z,95464.59
2022-09-16T20:23:20.347Z,95457.25
2022-09-16T20:28:23.121Z,95445.66
2022-09-16T20:33:30.090Z,95466.06
2022-09-16T20:38:37.080Z,95471.41
2022-09-16T20:43:40.194Z,95474.31
2022-09-16T20:48:42.870Z,95452.44
2022-09-16T20:53:54.363Z,95461.63
2022-09-16T20:58:56.591Z,95464.66
2022-09-16T21:04:05.194Z,95471.63
2022-09-16T21:09:10.367Z,95477.03
2022-09-16T21:14:15.458Z,95475.53
2022-09-16T21:19:18.162Z,95468.94
2022-09-16T21:24:20.286Z,95451.47
2022-09-16T21:29:22.284Z,95481.50
2022-09-16T21:34:25.304Z,95492.56
2022-09-16T21:39:28.353Z,95494.25
2022-09-16T21:44:30.431Z,95473.09
2022-09-16T21:49:35.397Z,95488.63
2022-09-16T21:54:37.462Z,95497.56
2022-09-16T21:59:39.538Z,95488.44
2022-09-16T22:04:41.696Z,95450.94
2022-09-16T22:09:43.888Z,95463.94
2022-09-16T22:14:46.050Z,95466.38
2022-09-16T22:19:48.143Z,95464.91
2022-09-16T22:24:50.469Z,95458.75
2022-09-16T22:29:53.211Z,95467.94
2022-09-16T22:34:55.355Z,95448.00
2022-09-16T22:39:57.547Z,95445.84
2022-09-16T22:44:59.775Z,95436.25
2022-09-16T22:50:02.056Z,95442.13
2022-09-16T22:55:04.348Z,95437.09
2022-09-16T23:00:06.948Z,95427.69
2022-09-16T23:05:10.133Z,95405.63
2022-09-16T23:10:12.320Z,95391.59
2022-09-16T23:15:14.529Z,95388.47
2022-09-16T23:20:16.831Z,95392.50
2022-09-16T23:25:20.364Z,95372.81
2022-09-16T23:30:22.639Z,95376.44
2022-09-16T23:35:24.844Z,95381.66
2022-09-16T23:40:28.908Z,95366.50
2022-09-16T23:45:31.100Z,95361.06
2022-09-16T23:50:33.216Z,95364.91
2022-09-16T23:55:35.416Z,95376.38
